sensor_id;sensor_type;location;lat;lon;timestamp;pressure;altitude;pressure_sealevel;temperature;humidity
44349;BME280;30068;50.986;4.564;2023-03-15T00:01:31;101358.28;;;17.39;nan
44349;BME280;30068;50.986;4.564;2023-03-15T00:03:56;101358.16;;;17.49;nan
44349;BME280;30068;50.986;4.564;2023-03-15T00:06:21;101360.91;;;17.31;nan
44349;BME280;30068;50.986;4.564;2023-03-15T00:08:47;101369.63;;;17.25;nan
44349;BME280;30068;50.986;4.564;2023-03-15T00:11:13;101361.72;;;17.06;nan
44349;BME280;30068;50.986;4.564;2023-03-15T00:13:39;101357.63;;;17.02;nan
44349;BME280;30068;50.986;4.564;2023-03-15T00:16:04;101371.72;;;16.95;nan
44349;BME280;30068;50.986;4.564;2023-03-15T00:18:30;101384.97;;;16.71;nan
44349;BME280;30068;50.986;4.564;2023-03-15T00:20:55;101391.75;;;16.75;nan
44349;BME280;30068;50.986;4.564;2023-03-15T00:23:21;101396.22;;;16.84;nan
44349;BME280;30068;50.986;4.564;2023-03-15T00:25:46;101390.59;;;16.78;nan
44349;BME280;30068;50.986;4.564;2023-03-15T00:28:13;101387.16;;;16.85;nan
44349;BME280;30068;50.986;4.564;2023-03-15T00:30:38;101392.03;;;16.72;nan
44349;BME280;30068;50.986;4.564;2023-03-15T00:33:03;101384.75;;;16.82;nan
44349;BME280;30068;50.986;4.564;2023-03-15T00:35:30;101384.13;;;16.71;nan
44349;BME280;30068;50.986;4.564;2023-03-15T00:37:55;101387.16;;;16.58;nan
44349;BME280;30068;50.986;4.564;2023-03-15T00:40:21;101388.81;;;16.69;nan
44349;BME280;30068;50.986;4.564;2023-03-15T00:42:47;101395.84;;;16.97;nan
44349;BME280;30068;50.986;4.564;2023-03-15T00:45:16;101401.06;;;16.81;nan
44349;BME280;30068;50.986;4.564;2023-03-15T00:47:41;101404.28;;;16.67;nan
44349;BME280;30068;50.986;4.564;2023-03-15T00:50:07;101402.31;;;16.59;nan
44349;BME280;30068;50.986;4.564;2023-03-15T00:52:33;101388.13;;;16.67;nan
44349;BME280;30068;50.986;4.564;2023-03-15T00:54:59;101391.47;;;16.51;nan
44349;BME280;30068;50.986;4.564;2023-03-15T00:57:25;101404.63;;;16.54;nan
44349;BME280;30068;50.986;4.564;2023-03-15T00:59:50;101400.13;;;16.45;nan
44349;BME280;30068;50.986;4.564;2023-03-15T01:02:17;101401.78;;;16.55;nan
44349;BME280;30068;50.986;4.564;2023-03-15T01:04:46;101391.38;;;16.43;nan
44349;BME280;30068;50.986;4.564;2023-03-15T01:07:11;101391.38;;;16.43;nan
44349;BME280;30068;50.986;4.564;2023-03-15T01:09:36;101395.44;;;16.47;nan
44349;BME280;30068;50.986;4.564;2023-03-15T01:12:01;101403.13;;;16.42;nan
44349;BME280;30068;50.986;4.564;2023-03-15T01:14:26;101411.41;;;16.31;nan
44349;BME280;30068;50.986;4.564;2023-03-15T01:16:52;101402.56;;;16.38;nan
44349;BME280;30068;50.986;4.564;2023-03-15T01:19:17;101403.59;;;16.37;nan
44349;BME280;30068;50.986;4.564;2023-03-15T01:21:42;101405.56;;;16.35;nan
44349;BME280;30068;50.986;4.564;2023-03-15T01:24:11;101406.72;;;16.33;nan
44349;BME280;30068;50.986;4.564;2023-03-15T01:26:37;101412.09;;;16.33;nan
44349;BME280;30068;50.986;4.564;2023-03-15T01:29:02;101416.81;;;16.31;nan
44349;BME280;30068;50.986;4.564;2023-03-15T01:31:28;101411.00;;;16.26;nan
44349;BME280;30068;50.986;4.564;2023-03-15T01:33:55;101415.66;;;16.33;nan
44349;BME280;30068;50.986;4.564;2023-03-15T01:36:20;101411.41;;;16.31;nan
44349;BME280;30068;50.986;4.564;2023-03-15T01:38:45;101418.41;;;16.24;nan
44349;BME280;30068;50.986;4.564;2023-03-15T01:41:11;101415.72;;;16.24;nan
44349;BME280;30068;50.986;4.564;2023-03-15T01:43:36;101415.13;;;16.20;nan
44349;BME280;30068;50.986;4.564;2023-03-15T01:50:55;101419.69;;;16.19;nan
44349;BME280;30068;50.986;4.564;2023-03-15T01:53:22;101423.78;;;16.24;nan
44349;BME280;30068;50.986;4.564;2023-03-15T01:55:49;101420.56;;;16.10;nan
44349;BME280;30068;50.986;4.564;2023-03-15T01:58:17;101414.50;;;16.08;nan
44349;BME280;30068;50.986;4.564;2023-03-15T02:00:42;101416.34;;;16.08;nan
44349;BME280;30068;50.986;4.564;2023-03-15T02:03:09;101423.56;;;16.07;nan
44349;BME280;30068;50.986;4.564;2023-03-15T02:05:42;101432.22;;;16.01;nan
44349;BME280;30068;50.986;4.564;2023-03-15T02:08:10;101425.78;;;16.12;nan
44349;BME280;30068;50.986;4.564;2023-03-15T02:10:37;101427.09;;;16.08;nan
44349;BME280;30068;50.986;4.564;2023-03-15T02:13:04;101431.22;;;16.02;nan
44349;BME280;30068;50.986;4.564;2023-03-15T02:15:31;101432.22;;;16.01;nan
44349;BME280;30068;50.986;4.564;2023-03-15T02:17:56;101416.22;;;16.00;nan
44349;BME280;30068;50.986;4.564;2023-03-15T02:22:59;101423.16;;;16.02;nan
44349;BME280;30068;50.986;4.564;2023-03-15T02:27:50;101430.38;;;16.02;nan
44349;BME280;30068;50.986;4.564;2023-03-15T02:30:17;101440.25;;;16.11;nan
44349;BME280;30068;50.986;4.564;2023-03-15T02:32:42;101433.47;;;16.07;nan
44349;BME280;30068;50.986;4.564;2023-03-15T02:35:08;101435.66;;;15.94;nan
44349;BME280;30068;50.986;4.564;2023-03-15T02:37:34;101438.91;;;15.88;nan
44349;BME280;30068;50.986;4.564;2023-03-15T02:39:59;101440.88;;;15.95;nan
44349;BME280;30068;50.986;4.564;2023-03-15T02:42:24;101434.94;;;15.92;nan
44349;BME280;30068;50.986;4.564;2023-03-15T02:44:49;101439.44;;;16.01;nan
44349;BME280;30068;50.986;4.564;2023-03-15T02:47:16;101443.59;;;15.95;nan
44349;BME280;30068;50.986;4.564;2023-03-15T02:49:45;101447.97;;;15.96;nan
44349;BME280;30068;50.986;4.564;2023-03-15T02:52:13;101440.91;;;15.86;nan
44349;BME280;30068;50.986;4.564;2023-03-15T02:54:38;101442.59;;;15.96;nan
44349;BME280;30068;50.986;4.564;2023-03-15T02:57:07;101443.31;;;15.89;nan
44349;BME280;30068;50.986;4.564;2023-03-15T02:59:32;101454.50;;;15.84;nan
44349;BME280;30068;50.986;4.564;2023-03-15T03:01:58;101459.03;;;15.93;nan
44349;BME280;30068;50.986;4.564;2023-03-15T03:04:23;101465.56;;;15.81;nan
44349;BME280;30068;50.986;4.564;2023-03-15T03:06:48;101464.13;;;15.87;nan
44349;BME280;30068;50.986;4.564;2023-03-15T03:09:13;101474.03;;;15.86;nan
44349;BME280;30068;50.986;4.564;2023-03-15T03:11:38;101484.41;;;15.81;nan
44349;BME280;30068;50.986;4.564;2023-03-15T03:14:04;101485.09;;;15.83;nan
44349;BME280;30068;50.986;4.564;2023-03-15T03:16:29;101489.47;;;15.84;nan
44349;BME280;30068;50.986;4.564;2023-03-15T03:18:56;101494.31;;;15.80;nan
44349;BME280;30068;50.986;4.564;2023-03-15T03:21:21;101488.34;;;15.77;nan
44349;BME280;30068;50.986;4.564;2023-03-15T03:23:46;101499.97;;;15.77;nan
44349;BME280;30068;50.986;4.564;2023-03-15T03:26:13;101499.13;;;15.77;nan
44349;BME280;30068;50.986;4.564;2023-03-15T03:28:41;101503.50;;;15.78;nan
44349;BME280;30068;50.986;4.564;2023-03-15T03:31:13;101498.44;;;15.75;nan
44349;BME280;30068;50.986;4.564;2023-03-15T03:33:39;101506.22;;;15.78;nan
44349;BME280;30068;50.986;4.564;2023-03-15T03:36:04;101507.50;;;15.74;nan
44349;BME280;30068;50.986;4.564;2023-03-15T03:38:29;101508.47;;;15.73;nan
44349;BME280;30068;50.986;4.564;2023-03-15T03:40:55;101517.84;;;15.69;nan
44349;BME280;30068;50.986;4.564;2023-03-15T03:43:20;101525.47;;;15.64;nan
44349;BME280;30068;50.986;4.564;2023-03-15T03:45:45;101522.38;;;15.68;nan
44349;BME280;30068;50.986;4.564;2023-03-15T03:48:10;101535.97;;;15.67;nan
44349;BME280;30068;50.986;4.564;2023-03-15T03:50:36;101531.56;;;15.66;nan
44349;BME280;30068;50.986;4.564;2023-03-15T03:53:01;101540.34;;;15.68;nan
44349;BME280;30068;50.986;4.564;2023-03-15T03:55:26;101532.13;;;15.69;nan
44349;BME280;30068;50.986;4.564;2023-03-15T03:57:51;101541.47;;;15.65;nan
44349;BME280;30068;50.986;4.564;2023-03-15T04:00:17;101536.38;;;15.72;nan
44349;BME280;30068;50.986;4.564;2023-03-15T04:02:42;101549.13;;;15.70;nan
44349;BME280;30068;50.986;4.564;2023-03-15T04:05:10;101549.97;;;15.70;nan
44349;BME280;30068;50.986;4.564;2023-03-15T04:07:36;101559.88;;;15.70;nan
44349;BME280;30068;50.986;4.564;2023-03-15T04:10:01;101560.63;;;15.62;nan
44349;BME280;30068;50.986;4.564;2023-03-15T04:12:26;101559.47;;;15.65;nan
44349;BME280;30068;50.986;4.564;2023-03-15T04:14:52;101567.84;;;15.62;nan
44349;BME280;30068;50.986;4.564;2023-03-15T04:17:17;101567.84;;;15.62;nan
44349;BME280;30068;50.986;4.564;2023-03-15T04:19:42;101572.91;;;15.65;nan
44349;BME280;30068;50.986;4.564;2023-03-15T04:22:10;101570.22;;;15.65;nan
44349;BME280;30068;50.986;4.564;2023-03-15T04:24:42;101572.91;;;15.65;nan
44349;BME280;30068;50.986;4.564;2023-03-15T04:27:08;101572.06;;;15.64;nan
44349;BME280;30068;50.986;4.564;2023-03-15T04:29:33;101576.75;;;15.72;nan
44349;BME280;30068;50.986;4.564;2023-03-15T04:31:59;101581.28;;;15.62;nan
44349;BME280;30068;50.986;4.564;2023-03-15T04:34:28;101581.69;;;15.67;nan
44349;BME280;30068;50.986;4.564;2023-03-15T04:36:53;101581.84;;;15.56;nan
44349;BME280;30068;50.986;4.564;2023-03-15T04:39:19;101581.97;;;15.54;nan
44349;BME280;30068;50.986;4.564;2023-03-15T04:41:44;101582.13;;;15.53;nan
44349;BME280;30068;50.986;4.564;2023-03-15T04:44:09;101580.81;;;15.57;nan
44349;BME280;30068;50.986;4.564;2023-03-15T04:46:35;101586.66;;;15.62;nan
44349;BME280;30068;50.986;4.564;2023-03-15T04:49:00;101586.22;;;16.14;nan
44349;BME280;30068;50.986;4.564;2023-03-15T04:51:27;101593.44;;;16.04;nan
44349;BME280;30068;50.986;4.564;2023-03-15T04:53:52;101596.81;;;16.26;nan
44349;BME280;30068;50.986;4.564;2023-03-15T04:56:17;101601.50;;;16.24;nan
44349;BME280;30068;50.986;4.564;2023-03-15T04:58:43;101604.16;;;16.33;nan
44349;BME280;30068;50.986;4.564;2023-03-15T05:01:08;101610.41;;;16.43;nan
44349;BME280;30068;50.986;4.564;2023-03-15T05:03:33;101613.25;;;16.42;nan
44349;BME280;30068;50.986;4.564;2023-03-15T05:06:00;101617.38;;;16.27;nan
44349;BME280;30068;50.986;4.564;2023-03-15T05:08:31;101622.47;;;16.10;nan
44349;BME280;30068;50.986;4.564;2023-03-15T05:10:57;101625.84;;;16.51;nan
44349;BME280;30068;50.986;4.564;2023-03-15T05:13:22;101629.94;;;16.55;nan
44349;BME280;30068;50.986;4.564;2023-03-15T05:15:47;101629.38;;;16.61;nan
44349;BME280;30068;50.986;4.564;2023-03-15T05:18:12;101630.69;;;16.18;nan
44349;BME280;30068;50.986;4.564;2023-03-15T05:20:38;101638.19;;;16.25;nan
44349;BME280;30068;50.986;4.564;2023-03-15T05:23:03;101646.19;;;16.82;nan
44349;BME280;30068;50.986;4.564;2023-03-15T05:25:28;101640.72;;;17.02;nan
44349;BME280;30068;50.986;4.564;2023-03-15T05:27:54;101645.81;;;16.77;nan
44349;BME280;30068;50.986;4.564;2023-03-15T05:30:19;101650.81;;;16.43;nan
44349;BME280;30068;50.986;4.564;2023-03-15T05:32:45;101649.66;;;16.46;nan
44349;BME280;30068;50.986;4.564;2023-03-15T05:35:10;101651.31;;;16.85;nan
44349;BME280;30068;50.986;4.564;2023-03-15T05:37:36;101646.69;;;17.05;nan
44349;BME280;30068;50.986;4.564;2023-03-15T05:40:02;101657.16;;;17.08;nan
44349;BME280;30068;50.986;4.564;2023-03-15T05:42:28;101652.19;;;16.76;nan
44349;BME280;30068;50.986;4.564;2023-03-15T05:44:54;101656.72;;;16.66;nan
44349;BME280;30068;50.986;4.564;2023-03-15T05:47:20;101650.66;;;16.64;nan
44349;BME280;30068;50.986;4.564;2023-03-15T05:49:47;101654.34;;;17.00;nan
44349;BME280;30068;50.986;4.564;2023-03-15T05:52:12;101654.22;;;17.02;nan
44349;BME280;30068;50.986;4.564;2023-03-15T05:54:37;101665.31;;;16.98;nan
44349;BME280;30068;50.986;4.564;2023-03-15T05:57:03;101666.38;;;16.78;nan
44349;BME280;30068;50.986;4.564;2023-03-15T05:59:28;101668.25;;;16.49;nan
44349;BME280;30068;50.986;4.564;2023-03-15T06:01:53;101669.94;;;16.69;nan
44349;BME280;30068;50.986;4.564;2023-03-15T06:04:18;101672.03;;;16.75;nan
44349;BME280;30068;50.986;4.564;2023-03-15T06:06:44;101681.38;;;16.90;nan
44349;BME280;30068;50.986;4.564;2023-03-15T06:09:09;101694.59;;;17.21;nan
44349;BME280;30068;50.986;4.564;2023-03-15T06:11:34;101694.72;;;16.92;nan
44349;BME280;30068;50.986;4.564;2023-03-15T06:14:00;101692.56;;;16.86;nan
44349;BME280;30068;50.986;4.564;2023-03-15T06:16:25;101704.94;;;16.79;nan
44349;BME280;30068;50.986;4.564;2023-03-15T06:18:50;101706.66;;;16.70;nan
44349;BME280;30068;50.986;4.564;2023-03-15T06:21:16;101710.75;;;16.74;nan
44349;BME280;30068;50.986;4.564;2023-03-15T06:23:41;101707.47;;;16.90;nan
44349;BME280;30068;50.986;4.564;2023-03-15T06:26:06;101719.31;;;17.16;nan
44349;BME280;30068;50.986;4.564;2023-03-15T06:28:31;101720.03;;;17.09;nan
44349;BME280;30068;50.986;4.564;2023-03-15T06:30:56;101715.94;;;17.05;nan
44349;BME280;30068;50.986;4.564;2023-03-15T06:33:22;101723.13;;;16.77;nan
44349;BME280;30068;50.986;4.564;2023-03-15T06:35:48;101729.06;;;16.80;nan
44349;BME280;30068;50.986;4.564;2023-03-15T06:38:13;101735.44;;;16.79;nan
44349;BME280;30068;50.986;4.564;2023-03-15T06:40:39;101733.28;;;16.92;nan
44349;BME280;30068;50.986;4.564;2023-03-15T06:43:04;101734.97;;;16.93;nan
44349;BME280;30068;50.986;4.564;2023-03-15T06:45:30;101729.88;;;17.37;nan
44349;BME280;30068;50.986;4.564;2023-03-15T06:47:56;101734.06;;;17.22;nan
44349;BME280;30068;50.986;4.564;2023-03-15T06:50:21;101736.09;;;17.01;nan
44349;BME280;30068;50.986;4.564;2023-03-15T06:52:46;101738.44;;;16.76;nan
44349;BME280;30068;50.986;4.564;2023-03-15T06:55:11;101739.84;;;16.80;nan
44349;BME280;30068;50.986;4.564;2023-03-15T06:57:41;101740.22;;;16.95;nan
44349;BME280;30068;50.986;4.564;2023-03-15T07:00:07;101740.63;;;17.10;nan
44349;BME280;30068;50.986;4.564;2023-03-15T07:02:35;101747.66;;;17.30;nan
44349;BME280;30068;50.986;4.564;2023-03-15T07:05:02;101753.28;;;17.46;nan
44349;BME280;30068;50.986;4.564;2023-03-15T07:07:27;101759.69;;;17.45;nan
44349;BME280;30068;50.986;4.564;2023-03-15T07:09:53;101764.88;;;17.56;nan
44349;BME280;30068;50.986;4.564;2023-03-15T07:12:18;101772.06;;;17.38;nan
44349;BME280;30068;50.986;4.564;2023-03-15T07:14:43;101765.94;;;17.36;nan
44349;BME280;30068;50.986;4.564;2023-03-15T07:17:10;101772.19;;;17.36;nan
44349;BME280;30068;50.986;4.564;2023-03-15T07:19:37;101775.94;;;17.26;nan
44349;BME280;30068;50.986;4.564;2023-03-15T07:22:02;101783.50;;;17.03;nan
44349;BME280;30068;50.986;4.564;2023-03-15T07:24:27;101791.47;;;17.05;nan
44349;BME280;30068;50.986;4.564;2023-03-15T07:26:53;101793.72;;;16.99;nan
44349;BME280;30068;50.986;4.564;2023-03-15T07:29:20;101803.53;;;16.81;nan
44349;BME280;30068;50.986;4.564;2023-03-15T07:31:45;101802.28;;;16.85;nan
44349;BME280;30068;50.986;4.564;2023-03-15T07:34:10;101811.91;;;16.88;nan
44349;BME280;30068;50.986;4.564;2023-03-15T07:36:36;101818.28;;;16.68;nan
44349;BME280;30068;50.986;4.564;2023-03-15T07:39:01;101818.72;;;16.92;nan
44349;BME280;30068;50.986;4.564;2023-03-15T07:41:26;101821.41;;;16.63;nan
44349;BME280;30068;50.986;4.564;2023-03-15T07:43:52;101830.19;;;16.65;nan
44349;BME280;30068;50.986;4.564;2023-03-15T07:46:17;101833.75;;;16.75;nan
44349;BME280;30068;50.986;4.564;2023-03-15T07:48:42;101843.50;;;16.57;nan
44349;BME280;30068;50.986;4.564;2023-03-15T07:51:07;101842.13;;;16.63;nan
44349;BME280;30068;50.986;4.564;2023-03-15T07:53:33;101838.81;;;17.26;nan
44349;BME280;30068;50.986;4.564;2023-03-15T07:55:58;101842.00;;;17.59;nan
44349;BME280;30068;50.986;4.564;2023-03-15T07:58:23;101841.09;;;17.77;nan
44349;BME280;30068;50.986;4.564;2023-03-15T08:00:48;101840.41;;;17.75;nan
44349;BME280;30068;50.986;4.564;2023-03-15T08:03:13;101846.38;;;17.79;nan
44349;BME280;30068;50.986;4.564;2023-03-15T08:05:39;101852.81;;;17.59;nan
44349;BME280;30068;50.986;4.564;2023-03-15T08:08:04;101856.09;;;17.43;nan
44349;BME280;30068;50.986;4.564;2023-03-15T08:10:29;101865.06;;;17.34;nan
44349;BME280;30068;50.986;4.564;2023-03-15T08:12:54;101868.06;;;17.31;nan
44349;BME280;30068;50.986;4.564;2023-03-15T08:15:20;101867.75;;;17.34;nan
44349;BME280;30068;50.986;4.564;2023-03-15T08:17:46;101880.84;;;17.29;nan
44349;BME280;30068;50.986;4.564;2023-03-15T08:20:11;101880.69;;;17.21;nan
44349;BME280;30068;50.986;4.564;2023-03-15T08:22:38;101889.81;;;16.91;nan
44349;BME280;30068;50.986;4.564;2023-03-15T08:25:04;101892.78;;;16.97;nan
44349;BME280;30068;50.986;4.564;2023-03-15T08:27:30;101897.31;;;17.07;nan
44349;BME280;30068;50.986;4.564;2023-03-15T08:29:55;101888.38;;;16.96;nan
44349;BME280;30068;50.986;4.564;2023-03-15T08:32:21;101891.09;;;16.96;nan
44349;BME280;30068;50.986;4.564;2023-03-15T08:34:46;101894.91;;;16.94;nan
44349;BME280;30068;50.986;4.564;2023-03-15T08:37:12;101889.78;;;17.01;nan
44349;BME280;30068;50.986;4.564;2023-03-15T08:39:37;101891.50;;;16.82;nan
44349;BME280;30068;50.986;4.564;2023-03-15T08:42:03;101893.06;;;16.85;nan
44349;BME280;30068;50.986;4.564;2023-03-15T08:44:28;101904.09;;;16.72;nan
44349;BME280;30068;50.986;4.564;2023-03-15T08:46:53;101895.31;;;16.99;nan
44349;BME280;30068;50.986;4.564;2023-03-15T08:49:18;101906.28;;;16.78;nan
44349;BME280;30068;50.986;4.564;2023-03-15T08:51:44;101909.09;;;16.77;nan
44349;BME280;30068;50.986;4.564;2023-03-15T08:54:09;101912.19;;;16.63;nan
44349;BME280;30068;50.986;4.564;2023-03-15T08:56:34;101908.31;;;16.55;nan
44349;BME280;30068;50.986;4.564;2023-03-15T08:58:59;101913.34;;;16.79;nan
44349;BME280;30068;50.986;4.564;2023-03-15T09:01:25;101919.00;;;16.86;nan
44349;BME280;30068;50.986;4.564;2023-03-15T09:03:50;101919.75;;;16.78;nan
44349;BME280;30068;50.986;4.564;2023-03-15T09:06:15;101925.81;;;16.71;nan
44349;BME280;30068;50.986;4.564;2023-03-15T09:08:41;101929.22;;;16.73;nan
44349;BME280;30068;50.986;4.564;2023-03-15T09:11:06;101933.34;;;16.86;nan
44349;BME280;30068;50.986;4.564;2023-03-15T09:13:32;101929.09;;;16.74;nan
44349;BME280;30068;50.986;4.564;2023-03-15T09:15:57;101928.50;;;16.61;nan
44349;BME280;30068;50.986;4.564;2023-03-15T09:18:22;101925.91;;;16.50;nan
44349;BME280;30068;50.986;4.564;2023-03-15T09:20:48;101925.03;;;16.49;nan
44349;BME280;30068;50.986;4.564;2023-03-15T09:23:13;101927.38;;;16.64;nan
44349;BME280;30068;50.986;4.564;2023-03-15T09:25:39;101929.28;;;16.52;nan
44349;BME280;30068;50.986;4.564;2023-03-15T09:28:08;101927.09;;;16.76;nan
44349;BME280;30068;50.986;4.564;2023-03-15T09:30:35;101925.72;;;16.51;nan
44349;BME280;30068;50.986;4.564;2023-03-15T09:33:00;101930.44;;;16.59;nan
44349;BME280;30068;50.986;4.564;2023-03-15T09:35:26;101923.28;;;16.39;nan
44349;BME280;30068;50.986;4.564;2023-03-15T09:37:51;101920.81;;;16.56;nan
44349;BME280;30068;50.986;4.564;2023-03-15T09:45:16;101943.50;;;12.84;nan
44349;BME280;30068;50.986;4.564;2023-03-15T09:47:46;101945.16;;;11.62;nan
44349;BME280;30068;50.986;4.564;2023-03-15T09:50:24;101935.63;;;13.18;nan
44349;BME280;30068;50.986;4.564;2023-03-15T09:52:53;101939.34;;;14.63;nan
44349;BME280;30068;50.986;4.564;2023-03-15T09:55:23;101933.34;;;15.14;nan
44349;BME280;30068;50.986;4.564;2023-03-15T10:03:08;101939.91;;;15.83;nan
44349;BME280;30068;50.986;4.564;2023-03-15T10:08:07;101938.31;;;16.01;nan
44349;BME280;30068;50.986;4.564;2023-03-15T10:10:34;101933.13;;;16.09;nan
44349;BME280;30068;50.986;4.564;2023-03-15T10:13:17;101925.75;;;16.11;nan
44349;BME280;30068;50.986;4.564;2023-03-15T10:18:23;101942.94;;;15.90;nan
44349;BME280;30068;50.986;4.564;2023-03-15T10:20:55;101940.25;;;16.20;nan
44349;BME280;30068;50.986;4.564;2023-03-15T10:23:28;101945.13;;;16.36;nan
44349;BME280;30068;50.986;4.564;2023-03-15T10:25:56;101957.06;;;16.43;nan
44349;BME280;30068;50.986;4.564;2023-03-15T10:28:23;101962.81;;;16.29;nan
44349;BME280;30068;50.986;4.564;2023-03-15T10:30:49;101964.13;;;16.34;nan
44349;BME280;30068;50.986;4.564;2023-03-15T10:35:40;101966.22;;;16.00;nan
44349;BME280;30068;50.986;4.564;2023-03-15T10:38:15;101961.78;;;16.20;nan
44349;BME280;30068;50.986;4.564;2023-03-15T10:43:16;101960.63;;;16.13;nan
44349;BME280;30068;50.986;4.564;2023-03-15T10:45:42;101973.34;;;16.11;nan
44349;BME280;30068;50.986;4.564;2023-03-15T10:48:10;101977.69;;;16.23;nan
44349;BME280;30068;50.986;4.564;2023-03-15T10:50:36;101976.59;;;16.05;nan
44349;BME280;30068;50.986;4.564;2023-03-15T10:53:07;101990.88;;;15.96;nan
44349;BME280;30068;50.986;4.564;2023-03-15T10:55:34;101982.88;;;16.15;nan
44349;BME280;30068;50.986;4.564;2023-03-15T11:00:52;101982.81;;;16.05;nan
44349;BME280;30068;50.986;4.564;2023-03-15T11:03:22;101984.97;;;16.11;nan
44349;BME280;30068;50.986;4.564;2023-03-15T11:05:52;101991.53;;;16.18;nan
44349;BME280;30068;50.986;4.564;2023-03-15T11:08:19;101993.63;;;16.36;nan
44349;BME280;30068;50.986;4.564;2023-03-15T11:10:46;101997.78;;;16.19;nan
44349;BME280;30068;50.986;4.564;2023-03-15T11:13:17;101992.94;;;16.13;nan
44349;BME280;30068;50.986;4.564;2023-03-15T11:16:28;102002.69;;;16.35;nan
44349;BME280;30068;50.986;4.564;2023-03-15T11:18:42;102007.84;;;16.17;nan
44349;BME280;30068;50.986;4.564;2023-03-15T11:21:09;102013.03;;;16.09;nan
44349;BME280;30068;50.986;4.564;2023-03-15T11:23:37;102010.88;;;16.24;nan
44349;BME280;30068;50.986;4.564;2023-03-15T11:26:02;102009.47;;;16.29;nan
44349;BME280;30068;50.986;4.564;2023-03-15T11:28:29;102003.56;;;16.14;nan
44349;BME280;30068;50.986;4.564;2023-03-15T11:30:56;102008.19;;;16.03;nan
44349;BME280;30068;50.986;4.564;2023-03-15T11:36:04;102008.22;;;16.12;nan
44349;BME280;30068;50.986;4.564;2023-03-15T11:38:32;102009.22;;;16.11;nan
44349;BME280;30068;50.986;4.564;2023-03-15T11:40:59;101997.53;;;16.22;nan
44349;BME280;30068;50.986;4.564;2023-03-15T11:43:43;101996.09;;;15.97;nan
44349;BME280;30068;50.986;4.564;2023-03-15T11:46:58;102005.00;;;16.49;nan
44349;BME280;30068;50.986;4.564;2023-03-15T11:49:16;102001.81;;;16.34;nan
44349;BME280;30068;50.986;4.564;2023-03-15T11:51:43;101998.63;;;16.19;nan
44349;BME280;30068;50.986;4.564;2023-03-15T11:54:13;101997.22;;;16.15;nan
44349;BME280;30068;50.986;4.564;2023-03-15T11:59:09;101984.63;;;15.95;nan
44349;BME280;30068;50.986;4.564;2023-03-15T12:01:36;101983.69;;;15.85;nan
44349;BME280;30068;50.986;4.564;2023-03-15T12:06:50;101977.78;;;15.91;nan
44349;BME280;30068;50.986;4.564;2023-03-15T12:14:45;101965.97;;;16.03;nan
44349;BME280;30068;50.986;4.564;2023-03-15T12:19:55;101968.94;;;16.31;nan
44349;BME280;30068;50.986;4.564;2023-03-15T12:22:21;101961.28;;;16.05;nan
44349;BME280;30068;50.986;4.564;2023-03-15T12:24:46;101964.28;;;16.12;nan
44349;BME280;30068;50.986;4.564;2023-03-15T12:27:18;101962.28;;;16.04;nan
44349;BME280;30068;50.986;4.564;2023-03-15T12:29:44;101962.28;;;16.04;nan
44349;BME280;30068;50.986;4.564;2023-03-15T12:32:11;101959.41;;;15.96;nan
44349;BME280;30068;50.986;4.564;2023-03-15T12:37:30;101958.69;;;16.25;nan
44349;BME280;30068;50.986;4.564;2023-03-15T12:40:27;101947.88;;;16.15;nan
44349;BME280;30068;50.986;4.564;2023-03-15T12:52:58;101954.69;;;16.19;nan
44349;BME280;30068;50.986;4.564;2023-03-15T12:55:26;101954.38;;;16.12;nan
44349;BME280;30068;50.986;4.564;2023-03-15T12:57:52;101948.44;;;16.18;nan
44349;BME280;30068;50.986;4.564;2023-03-15T13:00:20;101952.72;;;16.21;nan
44349;BME280;30068;50.986;4.564;2023-03-15T13:05:22;101937.56;;;16.20;nan
44349;BME280;30068;50.986;4.564;2023-03-15T13:07:51;101945.84;;;16.07;nan
44349;BME280;30068;50.986;4.564;2023-03-15T13:13:07;101935.16;;;16.27;nan
44349;BME280;30068;50.986;4.564;2023-03-15T13:18:21;101939.38;;;16.19;nan
44349;BME280;30068;50.986;4.564;2023-03-15T13:23:32;101932.91;;;16.32;nan
44349;BME280;30068;50.986;4.564;2023-03-15T13:28:39;101941.28;;;16.29;nan
44349;BME280;30068;50.986;4.564;2023-03-15T13:31:25;101947.47;;;16.19;nan
44349;BME280;30068;50.986;4.564;2023-03-15T13:33:51;101947.91;;;16.25;nan
44349;BME280;30068;50.986;4.564;2023-03-15T13:36:22;101948.75;;;16.25;nan
44349;BME280;30068;50.986;4.564;2023-03-15T13:38:50;101949.06;;;16.32;nan
44349;BME280;30068;50.986;4.564;2023-03-15T13:41:22;101941.09;;;16.20;nan
44349;BME280;30068;50.986;4.564;2023-03-15T13:43:49;101941.53;;;16.26;nan
44349;BME280;30068;50.986;4.564;2023-03-15T13:46:16;101939.38;;;16.19;nan
44349;BME280;30068;50.986;4.564;2023-03-15T13:48:42;101936.56;;;16.21;nan
44349;BME280;30068;50.986;4.564;2023-03-15T13:51:11;101943.34;;;16.15;nan
44349;BME280;30068;50.986;4.564;2023-03-15T13:53:41;101949.63;;;16.26;nan
44349;BME280;30068;50.986;4.564;2023-03-15T13:56:06;101947.38;;;16.31;nan
44349;BME280;30068;50.986;4.564;2023-03-15T13:58:32;101942.81;;;16.22;nan
44349;BME280;30068;50.986;4.564;2023-03-15T14:00:58;101950.03;;;16.21;nan
44349;BME280;30068;50.986;4.564;2023-03-15T14:03:24;101957.25;;;16.20;nan
44349;BME280;30068;50.986;4.564;2023-03-15T14:05:51;101946.03;;;16.15;nan
44349;BME280;30068;50.986;4.564;2023-03-15T14:08:28;101944.66;;;16.21;nan
44349;BME280;30068;50.986;4.564;2023-03-15T14:11:09;101951.31;;;16.27;nan
44349;BME280;30068;50.986;4.564;2023-03-15T14:13:55;101949.06;;;16.32;nan
44349;BME280;30068;50.986;4.564;2023-03-15T14:21:53;101958.91;;;14.97;nan
44349;BME280;30068;50.986;4.564;2023-03-15T14:26:52;101964.16;;;15.30;nan
44349;BME280;30068;50.986;4.564;2023-03-15T14:29:21;101967.34;;;15.56;nan
44349;BME280;30068;50.986;4.564;2023-03-15T14:31:50;101948.81;;;15.74;nan